createdAt,value
2024-04-22T00:01:05.944Z,95977.97
2024-04-22T00:03:33.570Z,95982.94
2024-04-22T00:06:03.725Z,95976.25
2024-04-22T00:08:30.998Z,95982.13
2024-04-22T00:11:05.968Z,95970.47
2024-04-22T00:13:37.213Z,95968.66
2024-04-22T00:16:08.241Z,95968.44
2024-04-22T00:18:35.488Z,95963.25
2024-04-22T00:21:05.458Z,95961.50
2024-04-22T00:23:32.693Z,95965.69
2024-04-22T00:26:02.684Z,95963.94
2024-04-22T00:28:30.248Z,95964.31
2024-04-22T00:31:02.926Z,95962.91
2024-04-22T00:33:30.242Z,95956.28
2024-04-22T00:36:00.948Z,95958.47
2024-04-22T00:38:29.237Z,95956.28
2024-04-22T00:40:59.242Z,95961.53
2024-04-22T00:43:26.790Z,95959.72
2024-04-22T00:45:57.864Z,95950.22
2024-04-22T00:48:28.603Z,95950.16
2024-04-22T00:50:59.839Z,95948.06
2024-04-22T00:53:28.514Z,95945.19
2024-04-22T00:55:59.197Z,95953.59
2024-04-22T00:58:27.725Z,95940.19
2024-04-22T01:01:00.721Z,95942.00
2024-04-22T01:03:30.942Z,95941.31
2024-04-22T01:06:00.870Z,95935.66
2024-04-22T01:08:28.207Z,95932.91
2024-04-22T01:10:58.579Z,95940.56
2024-04-22T01:13:25.982Z,95940.09
2024-04-22T01:15:55.946Z,95941.69
2024-04-22T01:18:23.255Z,95939.72
2024-04-22T01:20:56.377Z,95924.44
2024-04-22T01:23:26.430Z,95924.19
2024-04-22T01:25:58.848Z,95921.09
2024-04-22T01:28:26.189Z,95921.06
2024-04-22T01:30:56.138Z,95921.91
2024-04-22T01:33:23.449Z,95920.22
2024-04-22T01:35:53.374Z,95925.09
2024-04-22T01:38:20.618Z,95925.09
2024-04-22T01:41:18.681Z,95925.91
2024-04-22T01:43:45.968Z,95920.72
2024-04-22T01:46:16.122Z,95917.19
2024-04-22T01:48:43.576Z,95909.41
2024-04-22T01:51:13.481Z,95913.09
2024-04-22T01:53:40.685Z,95904.28
2024-04-22T01:56:10.757Z,95906.41
2024-04-22T01:58:40.938Z,95899.66
2024-04-22T02:01:12.488Z,95906.41
2024-04-22T02:03:39.782Z,95907.22
2024-04-22T02:06:09.812Z,95904.13
2024-04-22T02:08:37.050Z,95904.13
2024-04-22T02:11:07.422Z,95901.22
2024-04-22T02:13:34.788Z,95903.75
2024-04-22T02:16:08.249Z,95903.88
2024-04-22T02:18:35.630Z,95902.44
2024-04-22T02:21:05.637Z,95906.53
2024-04-22T02:23:33.054Z,95905.91
2024-04-22T02:26:04.245Z,95903.78
2024-04-22T02:28:31.585Z,95907.63
2024-04-22T02:31:01.481Z,95912.81
2024-04-22T02:33:31.576Z,95912.03
2024-04-22T02:36:01.556Z,95913.03
2024-04-22T02:38:28.764Z,95900.63
2024-04-22T02:40:58.834Z,95902.75
2024-04-22T02:43:26.254Z,95907.47
2024-04-22T02:45:56.280Z,95909.59
2024-04-22T02:48:23.587Z,95904.41
2024-04-22T02:50:56.279Z,95911.72
2024-04-22T02:53:23.649Z,95909.69
2024-04-22T02:55:53.652Z,95909.22
2024-04-22T02:58:20.861Z,95912.38
2024-04-22T03:00:55.636Z,95904.56
2024-04-22T03:03:23.464Z,95907.72
2024-04-22T03:05:56.126Z,95909.53
2024-04-22T03:08:23.399Z,95896.78
2024-04-22T03:10:53.330Z,95895.22
2024-04-22T03:13:20.734Z,95891.59
2024-04-22T03:15:50.598Z,95895.69
2024-04-22T03:18:17.921Z,95881.38
2024-04-22T03:20:48.854Z,95879.56
2024-04-22T03:23:18.806Z,95882.78
2024-04-22T03:25:48.767Z,95884.47
2024-04-22T03:28:15.968Z,95884.84
2024-04-22T03:30:45.906Z,95884.63
2024-04-22T03:33:13.224Z,95883.59
2024-04-22T03:35:43.654Z,95882.50
2024-04-22T03:38:13.647Z,95879.34
2024-04-22T03:40:46.386Z,95874.28
2024-04-22T03:43:16.390Z,95872.41
2024-04-22T03:45:45.723Z,95877.50
2024-04-22T03:48:42.932Z,95874.59
2024-04-22T03:51:12.842Z,95868.53
2024-04-22T03:53:42.763Z,95879.72
2024-04-22T03:56:15.481Z,95874.28
2024-04-22T03:58:45.500Z,95877.50
2024-04-22T04:01:12.927Z,95873.97
2024-04-22T04:03:43.025Z,95874.63
2024-04-22T04:06:10.773Z,95866.13
2024-04-22T04:08:40.683Z,95866.50
2024-04-22T04:11:14.243Z,95871.28
2024-04-22T04:13:47.897Z,95877.34
2024-04-22T04:16:15.246Z,95874.81
2024-04-22T04:18:47.307Z,95874.56
2024-04-22T04:21:14.529Z,95877.72
2024-04-22T04:23:44.451Z,95880.84
2024-04-22T04:26:12.535Z,95881.66
2024-04-22T04:28:43.343Z,95875.19
2024-04-22T04:31:14.229Z,95881.47
2024-04-22T04:33:44.247Z,95875.81
2024-04-22T04:36:11.614Z,95878.47
2024-04-22T04:38:41.781Z,95879.56
2024-04-22T04:41:09.049Z,95884.28
2024-04-22T04:43:39.115Z,95882.72
2024-04-22T04:46:06.417Z,95888.38
2024-04-22T04:48:39.050Z,95888.88
2024-04-22T04:51:06.292Z,95890.38
2024-04-22T04:53:36.272Z,95884.13
2024-04-22T04:56:03.824Z,95890.91
2024-04-22T04:58:33.991Z,95900.22
2024-04-22T05:01:01.400Z,95891.16
2024-04-22T05:03:31.607Z,95892.50
2024-04-22T05:06:03.689Z,95894.06
2024-04-22T05:08:33.708Z,95901.13
2024-04-22T05:11:04.565Z,95895.16
2024-04-22T05:13:34.607Z,95889.94
2024-04-22T05:16:01.982Z,95893.09
2024-04-22T05:18:31.958Z,95894.69
2024-04-22T05:21:02.010Z,95894.69
2024-04-22T05:23:32.035Z,95900.34
2024-04-22T05:25:59.283Z,95896.19
2024-04-22T05:28:29.292Z,95896.72
2024-04-22T05:30:56.677Z,95894.69
2024-04-22T05:33:41.771Z,95895.47
2024-04-22T05:36:16.429Z,95900.66
2024-04-22T05:38:46.961Z,95897.28
2024-04-22T05:41:17.004Z,95894.69
2024-04-22T05:43:47.121Z,95897.03
2024-04-22T05:46:17.265Z,95899.94
2024-04-22T05:48:47.396Z,95894.19
2024-04-22T05:51:20.133Z,95898.31
2024-04-22T05:53:50.112Z,95903.44
2024-04-22T05:56:17.416Z,95901.25
2024-04-22T05:58:47.404Z,95901.25
2024-04-22T06:01:14.854Z,95906.59
2024-04-22T06:03:44.966Z,95909.28
2024-04-22T06:06:12.282Z,95900.28
2024-04-22T06:08:45.287Z,95894.69
2024-04-22T06:11:12.567Z,95895.41
2024-04-22T06:13:42.572Z,95899.66
2024-04-22T06:16:10.029Z,95903.94
2024-04-22T06:18:40.114Z,95901.97
2024-04-22T06:21:07.312Z,95905.56
2024-04-22T06:23:37.156Z,95900.53
2024-04-22T06:26:07.721Z,95892.69
2024-04-22T06:28:37.928Z,95899.91
2024-04-22T06:31:06.787Z,95899.53
2024-04-22T06:33:42.112Z,95897.88
2024-04-22T06:36:10.115Z,95900.09
2024-04-22T06:38:40.083Z,95892.41
2024-04-22T06:41:10.318Z,95896.19
2024-04-22T06:43:41.251Z,95896.81
2024-04-22T06:46:11.257Z,95893.25
2024-04-22T06:48:39.179Z,95893.81
2024-04-22T06:51:09.253Z,95893.88
2024-04-22T06:53:36.587Z,95890.28
2024-04-22T06:56:06.928Z,95893.25
2024-04-22T06:58:37.630Z,95893.59
2024-04-22T07:01:08.631Z,95885.06
2024-04-22T07:03:38.306Z,95893.97
2024-04-22T07:06:11.370Z,95891.22
2024-04-22T07:08:38.793Z,95884.50
2024-04-22T07:11:08.913Z,95879.31
2024-04-22T07:13:38.979Z,95883.03
2024-04-22T07:16:09.625Z,95878.34
2024-04-22T07:18:37.009Z,95878.59
2024-04-22T07:21:07.333Z,95875.25
2024-04-22T07:23:34.487Z,95872.97
2024-04-22T07:26:07.249Z,95876.91
2024-04-22T07:28:35.134Z,95879.56
2024-04-22T07:31:09.050Z,95878.28
2024-04-22T07:33:37.102Z,95877.22
2024-04-22T07:36:17.927Z,95869.16
2024-04-22T07:38:48.171Z,95869.16
2024-04-22T07:41:18.971Z,95863.13
2024-04-22T07:43:46.354Z,95864.94
2024-04-22T07:46:19.737Z,95860.50
2024-04-22T07:48:47.049Z,95860.22
2024-04-22T07:51:16.962Z,95857.13
2024-04-22T07:53:45.015Z,95853.75
2024-04-22T07:56:17.055Z,95863.38
2024-04-22T07:58:45.210Z,95851.19
2024-04-22T08:01:18.986Z,95848.59
2024-04-22T08:03:47.127Z,95842.91
2024-04-22T08:06:23.876Z,95843.63
2024-04-22T08:08:51.324Z,95831.81
2024-04-22T08:11:22.824Z,95832.78
2024-04-22T08:13:51.553Z,95833.16
2024-04-22T08:16:24.379Z,95826.59
2024-04-22T08:18:51.691Z,95824.97
2024-04-22T08:21:21.694Z,95824.22
2024-04-22T08:23:49.008Z,95821.69
2024-04-22T08:26:19.016Z,95810.03
2024-04-22T08:28:46.352Z,95814.50
2024-04-22T08:31:16.378Z,95805.69
2024-04-22T08:33:46.507Z,95807.47
2024-04-22T08:36:17.489Z,95800.66
2024-04-22T08:38:44.840Z,95791.88
2024-04-22T08:41:17.370Z,95793.72
2024-04-22T08:43:44.748Z,95790.97
2024-04-22T08:46:15.356Z,95785.50
2024-04-22T08:48:42.738Z,95789.53
2024-04-22T08:51:15.725Z,95787.38
2024-04-22T08:53:43.084Z,95793.94
2024-04-22T08:56:13.166Z,95776.56
2024-04-22T08:58:41.069Z,95773.84
2024-04-22T09:01:11.581Z,95775.94
2024-04-22T09:03:38.996Z,95778.50
2024-04-22T09:06:09.232Z,95776.41
2024-04-22T09:08:45.308Z,95773.91
2024-04-22T09:14:00.369Z,95771.56
2024-04-22T09:16:30.730Z,95771.91
2024-04-22T09:18:58.195Z,95769.53
2024-04-22T09:21:29.885Z,95768.56
2024-04-22T09:24:00.871Z,95762.56
2024-04-22T09:26:30.960Z,95764.63
2024-04-22T09:29:00.289Z,95761.47
2024-04-22T09:31:31.117Z,95755.19
2024-04-22T09:33:59.351Z,95754.97
2024-04-22T09:36:31.844Z,95754.56
2024-04-22T09:39:05.332Z,95745.13
2024-04-22T09:41:35.743Z,95747.75
2024-04-22T09:44:11.789Z,95746.03
2024-04-22T09:46:43.862Z,95743.25
2024-04-22T09:49:14.373Z,95740.91
2024-04-22T09:51:45.649Z,95736.03
2024-04-22T09:54:18.766Z,95727.38
2024-04-22T09:56:47.862Z,95727.53
2024-04-22T09:59:18.757Z,95725.97
2024-04-22T10:01:47.240Z,95726.91
2024-04-22T10:04:17.920Z,95724.66
2024-04-22T10:06:45.455Z,95721.97
2024-04-22T10:09:23.913Z,95722.13
2024-04-22T10:11:51.709Z,95718.38
2024-04-22T10:14:22.361Z,95709.91
2024-04-22T10:16:57.474Z,95712.59
2024-04-22T10:19:28.133Z,95708.63
2024-04-22T10:22:00.099Z,95707.44
2024-04-22T10:24:44.101Z,95699.19
2024-04-22T10:27:13.381Z,95699.47
2024-04-22T10:29:45.733Z,95700.63
2024-04-22T10:32:13.085Z,95696.16
2024-04-22T10:34:45.853Z,95696.38
2024-04-22T10:37:13.713Z,95692.56
2024-04-22T10:39:47.840Z,95683.09
2024-04-22T10:42:17.266Z,95683.91
2024-04-22T10:44:48.460Z,95682.25
2024-04-22T10:47:15.862Z,95676.06
2024-04-22T10:49:46.254Z,95675.94
2024-04-22T10:52:13.798Z,95668.66
2024-04-22T10:54:50.972Z,95672.22
2024-04-22T10:57:20.619Z,95664.91
2024-04-22T10:59:51.064Z,95661.72
2024-04-22T11:02:18.707Z,95654.41
2024-04-22T11:04:50.388Z,95654.13
2024-04-22T11:07:18.147Z,95650.25
2024-04-22T11:09:51.010Z,95642.75
2024-04-22T11:12:21.116Z,95652.13
2024-04-22T11:14:52.787Z,95645.13
2024-04-22T11:17:21.831Z,95646.16
2024-04-22T11:19:51.902Z,95655.69
2024-04-22T11:22:22.242Z,95642.91
2024-04-22T11:24:52.464Z,95645.75
2024-04-22T11:27:22.609Z,95651.09
2024-04-22T11:29:49.898Z,95640.88
2024-04-22T11:32:21.872Z,95642.91
2024-04-22T11:34:49.335Z,95638.13
2024-04-22T11:37:19.538Z,95627.88
2024-04-22T11:39:52.043Z,95640.91
2024-04-22T11:42:22.208Z,95630.97
2024-04-22T11:44:51.433Z,95633.44
2024-04-22T11:47:21.538Z,95630.47
2024-04-22T11:49:49.533Z,95625.16
2024-04-22T11:52:19.608Z,95620.50
2024-04-22T11:54:47.095Z,95614.56
2024-04-22T11:57:19.836Z,95621.09
2024-04-22T11:59:47.146Z,95618.66
2024-04-22T12:02:18.681Z,95613.56
2024-04-22T12:04:46.549Z,95610.44
2024-04-22T12:07:16.788Z,95614.50
2024-04-22T12:09:44.163Z,95613.88
2024-04-22T12:12:14.179Z,95596.78
2024-04-22T12:14:44.190Z,95611.09
2024-04-22T12:17:18.192Z,95608.13
2024-04-22T12:19:45.670Z,95610.63
2024-04-22T12:22:15.672Z,95598.19
2024-04-22T12:24:43.064Z,95601.28
2024-04-22T12:27:13.666Z,95598.19
2024-04-22T12:29:44.071Z,95599.13
2024-04-22T12:32:14.073Z,95592.72
2024-04-22T12:34:41.422Z,95593.75
2024-04-22T12:37:11.507Z,95582.03
2024-04-22T12:39:38.862Z,95590.19
2024-04-22T12:42:09.529Z,95579.13
2024-04-22T12:44:36.904Z,95585.47
2024-04-22T12:47:25.557Z,95581.44
2024-04-22T12:50:11.316Z,95573.75
2024-04-22T12:52:41.290Z,95568.81
2024-04-22T12:55:12.182Z,95565.25
2024-04-22T12:57:42.783Z,95567.13
2024-04-22T13:00:15.192Z,95568.72
2024-04-22T13:02:48.384Z,95559.41
2024-04-22T13:05:18.896Z,95565.00
2024-04-22T13:07:49.208Z,95551.81
2024-04-22T13:10:19.570Z,95557.25
2024-04-22T13:12:49.531Z,95547.03
2024-04-22T13:15:19.768Z,95547.22
2024-04-22T13:17:52.508Z,95546.91
2024-04-22T13:20:20.070Z,95546.78
2024-04-22T13:22:50.095Z,95541.47
2024-04-22T13:25:17.517Z,95542.53
2024-04-22T13:27:47.766Z,95534.94
2024-04-22T13:30:17.084Z,95529.66
2024-04-22T13:32:48.359Z,95533.97
2024-04-22T13:35:19.212Z,95521.38
2024-04-22T13:37:49.730Z,95530.06
2024-04-22T13:40:17.262Z,95524.75
2024-04-22T13:42:49.368Z,95522.16
2024-04-22T13:45:18.128Z,95522.34
2024-04-22T13:47:48.323Z,95522.81
2024-04-22T13:50:18.460Z,95518.78
2024-04-22T13:52:49.336Z,95521.31
2024-04-22T13:55:16.841Z,95522.53
2024-04-22T13:57:48.244Z,95518.78
2024-04-22T14:00:15.831Z,95523.56
2024-04-22T14:02:46.430Z,95519.97
2024-04-22T14:05:14.999Z,95519.00
2024-04-22T14:07:47.796Z,95516.78
2024-04-22T14:10:15.720Z,95510.84
2024-04-22T14:12:45.905Z,95511.63
2024-04-22T14:15:13.182Z,95509.31
2024-04-22T14:17:43.500Z,95522.00
2024-04-22T14:20:11.269Z,95515.78
2024-04-22T14:22:41.220Z,95520.44
2024-04-22T14:25:11.426Z,95512.88
2024-04-22T14:27:41.436Z,95508.09
2024-04-22T14:30:10.851Z,95507.47
2024-04-22T14:32:40.965Z,95504.56
2024-04-22T14:35:08.419Z,95508.13
2024-04-22T14:37:38.750Z,95508.13
2024-04-22T14:40:07.458Z,95502.22
2024-04-22T14:42:40.213Z,95500.31
2024-04-22T14:45:11.033Z,95498.25
2024-04-22T14:47:38.410Z,95503.97
2024-04-22T14:50:09.480Z,95499.63
2024-04-22T14:52:39.428Z,95504.91
2024-04-22T14:55:08.855Z,95494.53
2024-04-22T14:57:41.517Z,95503.00
2024-04-22T15:00:09.809Z,95500.94
2024-04-22T15:02:39.723Z,95505.84
2024-04-22T15:05:07.937Z,95500.59
2024-04-22T15:07:38.519Z,95500.88
2024-04-22T15:10:06.884Z,95510.47
2024-04-22T15:12:37.088Z,95514.53
2024-04-22T15:15:08.686Z,95516.84
2024-04-22T15:17:38.858Z,95513.59
2024-04-22T15:20:07.795Z,95521.34
2024-04-22T15:22:38.034Z,95510.53
2024-04-22T15:25:06.690Z,95515.97
2024-04-22T15:27:36.859Z,95512.25
2024-04-22T15:30:08.653Z,95519.69
2024-04-22T15:32:40.185Z,95518.38
2024-04-22T15:35:08.046Z,95515.91
2024-04-22T15:37:38.202Z,95520.03
2024-04-22T15:40:07.091Z,95516.75
2024-04-22T15:42:37.054Z,95505.50
2024-04-22T15:45:08.076Z,95511.38
2024-04-22T15:47:38.398Z,95513.00
2024-04-22T15:50:06.842Z,95509.09
2024-04-22T15:52:37.255Z,95510.47
2024-04-22T15:55:05.420Z,95503.28
2024-04-22T15:57:36.782Z,95510.31
2024-04-22T16:00:10.498Z,95501.41
2024-04-22T16:02:41.202Z,95496.19
2024-04-22T16:05:09.375Z,95501.34
2024-04-22T16:07:39.617Z,95498.94
2024-04-22T16:10:07.717Z,95507.22
2024-04-22T16:12:38.989Z,95503.59
2024-04-22T16:15:09.130Z,95502.63
2024-04-22T16:17:39.258Z,95509.25
2024-04-22T16:20:07.670Z,95515.97
2024-04-22T16:22:37.702Z,95507.25
2024-04-22T16:25:05.812Z,95511.75
2024-04-22T16:27:35.864Z,95514.25
2024-04-22T16:30:04.734Z,95517.06
2024-04-22T16:32:37.526Z,95513.25
2024-04-22T16:35:05.659Z,95522.78
2024-04-22T16:37:38.202Z,95515.75
2024-04-22T16:40:06.485Z,95511.88
2024-04-22T16:42:36.817Z,95514.97
2024-04-22T16:45:05.009Z,95515.56
2024-04-22T16:47:38.125Z,95513.56
2024-04-22T16:50:06.621Z,95513.75
2024-04-22T16:52:36.676Z,95519.91
2024-04-22T16:55:04.481Z,95517.16
2024-04-22T16:57:34.507Z,95523.44
2024-04-22T17:00:01.840Z,95519.59
2024-04-22T17:02:31.935Z,95529.66
2024-04-22T17:05:02.128Z,95533.34
2024-04-22T17:07:32.228Z,95524.13
2024-04-22T17:09:59.565Z,95528.88
2024-04-22T17:12:29.603Z,95521.09
2024-04-22T17:14:56.928Z,95525.09
2024-04-22T17:17:26.951Z,95521.53
2024-04-22T17:19:54.389Z,95524.22
2024-04-22T17:22:27.310Z,95528.03
2024-04-22T17:24:54.797Z,95514.81
2024-04-22T17:27:26.858Z,95511.97
2024-04-22T17:29:54.339Z,95520.91
2024-04-22T17:32:24.440Z,95519.41
2024-04-22T17:34:51.921Z,95521.03
2024-04-22T17:37:22.003Z,95513.25
2024-04-22T17:39:52.047Z,95518.59
2024-04-22T17:42:24.689Z,95516.00
2024-04-22T17:44:52.201Z,95514.50
2024-04-22T17:47:22.184Z,95524.97
2024-04-22T17:49:49.750Z,95522.34
2024-04-22T17:52:20.118Z,95519.75
2024-04-22T17:54:50.003Z,95515.56
2024-04-22T17:57:23.049Z,95515.56
2024-04-22T17:59:50.371Z,95515.56
2024-04-22T18:02:20.483Z,95526.59
2024-04-22T18:04:47.835Z,95522.41
2024-04-22T18:07:17.769Z,95524.00
2024-04-22T18:09:45.079Z,95522.56
2024-04-22T18:12:15.049Z,95529.44
2024-04-22T18:14:47.869Z,95528.69
2024-04-22T18:17:18.319Z,95527.41
2024-04-22T18:19:45.778Z,95530.06
2024-04-22T18:22:17.972Z,95525.88
2024-04-22T18:24:49.085Z,95521.94
2024-04-22T18:27:19.004Z,95518.78
2024-04-22T18:29:49.002Z,95524.84
2024-04-22T18:32:19.054Z,95524.38
2024-04-22T18:34:46.395Z,95524.72
2024-04-22T18:37:16.514Z,95524.22
2024-04-22T18:39:43.844Z,95527.16
2024-04-22T18:42:15.790Z,95529.03
2024-04-22T18:44:43.547Z,95527.47
2024-04-22T18:47:16.262Z,95533.47
2024-04-22T18:49:44.140Z,95539.22
2024-04-22T18:52:14.279Z,95531.88
2024-04-22T18:54:41.620Z,95538.94
2024-04-22T18:57:11.507Z,95547.06
2024-04-22T18:59:40.710Z,95543.94
2024-04-22T19:02:10.747Z,95542.13
2024-04-22T19:04:40.782Z,95552.59
2024-04-22T19:07:12.964Z,95552.34
2024-04-22T19:09:41.295Z,95546.41
2024-04-22T19:12:12.960Z,95555.31
2024-04-22T19:14:42.145Z,95552.22
2024-04-22T19:17:14.327Z,95554.34
2024-04-22T19:19:45.867Z,95563.53
2024-04-22T19:22:17.657Z,95561.72
2024-04-22T19:24:45.129Z,95564.06
2024-04-22T19:27:15.116Z,95563.06
2024-04-22T19:29:42.489Z,95572.50
2024-04-22T19:32:13.511Z,95572.25
2024-04-22T19:34:46.212Z,95580.09
2024-04-22T19:37:16.598Z,95580.09
2024-04-22T19:39:44.207Z,95578.81
2024-04-22T19:42:14.550Z,95576.22
2024-04-22T19:44:42.340Z,95573.09
2024-04-22T19:47:13.791Z,95573.09
2024-04-22T19:49:43.939Z,95579.38
2024-04-22T19:52:13.933Z,95589.56
2024-04-22T19:54:41.146Z,95575.72
2024-04-22T19:57:11.272Z,95589.03
2024-04-22T19:59:41.454Z,95588.53
2024-04-22T20:02:11.564Z,95582.78
2024-04-22T20:04:40.009Z,95579.16
2024-04-22T20:07:12.949Z,95596.09
2024-04-22T20:09:44.024Z,95602.63
2024-04-22T20:12:15.070Z,95593.50
2024-04-22T20:14:42.419Z,95600.81
2024-04-22T20:17:16.107Z,95598.19
2024-04-22T20:19:43.509Z,95604.47
2024-04-22T20:22:16.206Z,95602.38
2024-04-22T20:24:43.646Z,95608.63
2024-04-22T20:27:14.619Z,95596.91
2024-04-22T20:29:42.135Z,95607.06
2024-04-22T20:32:12.330Z,95609.97
2024-04-22T20:34:39.966Z,95607.63
2024-04-22T20:37:10.129Z,95611.25
2024-04-22T20:39:40.123Z,95609.69
2024-04-22T20:42:10.199Z,95605.53
2024-04-22T20:44:37.582Z,95612.81
2024-04-22T20:47:07.677Z,95607.09
2024-04-22T20:49:35.011Z,95602.41
2024-04-22T20:52:04.986Z,95610.47
2024-04-22T20:54:32.222Z,95608.13
2024-04-22T20:57:05.941Z,95605.78
2024-04-22T20:59:33.242Z,95607.09
2024-04-22T21:02:03.422Z,95609.44
2024-04-22T21:04:30.832Z,95601.88
2024-04-22T21:07:01.361Z,95601.09
2024-04-22T21:09:28.623Z,95599.78
2024-04-22T21:11:58.616Z,95603.44
2024-04-22T21:14:28.863Z,95602.66
2024-04-22T21:16:58.780Z,95593.53
2024-04-22T21:19:26.158Z,95606.03
2024-04-22T21:21:56.230Z,95596.13
2024-04-22T21:24:23.421Z,95605.53
2024-04-22T21:26:54.891Z,95607.59
2024-04-22T21:29:23.501Z,95612.03
2024-04-22T21:31:56.228Z,95604.47
2024-04-22T21:34:23.823Z,95608.91
2024-04-22T21:36:53.979Z,95604.47
2024-04-22T21:39:21.322Z,95607.59
2024-04-22T21:41:51.314Z,95605.00
2024-04-22T21:44:18.566Z,95607.34
2024-04-22T21:46:48.519Z,95602.13
2024-04-22T21:49:18.463Z,95610.19
2024-04-22T21:51:48.723Z,95615.94
2024-04-22T21:54:20.593Z,95612.53
2024-04-22T21:56:50.277Z,95606.25
2024-04-22T21:59:54.641Z,95619.81
2024-04-22T22:03:02.052Z,95610.66
2024-04-22T22:06:06.485Z,95615.63
2024-04-22T22:08:36.184Z,95608.56
2024-04-22T22:11:06.387Z,95623.19
2024-04-22T22:13:36.504Z,95617.44
2024-04-22T22:16:04.064Z,95615.94
2024-04-22T22:18:34.137Z,95620.09
2024-04-22T22:21:01.641Z,95619.06
2024-04-22T22:23:31.648Z,95615.16
2024-04-22T22:25:58.968Z,95611.50
2024-04-22T22:28:31.679Z,95614.91
2024-04-22T22:30:59.038Z,95612.81
2024-04-22T22:33:28.983Z,95615.41
2024-04-22T22:35:56.301Z,95614.91
2024-04-22T22:38:26.261Z,95616.97
2024-04-22T22:40:53.586Z,95615.94
2024-04-22T22:43:23.748Z,95615.94
2024-04-22T22:45:53.808Z,95625.31
2024-04-22T22:48:23.809Z,95619.59
2024-04-22T22:50:51.164Z,95618.81
2024-04-22T22:53:21.350Z,95612.28
2024-04-22T22:55:48.651Z,95605.75
2024-04-22T22:58:18.837Z,95608.63
2024-04-22T23:00:46.122Z,95612.81
2024-04-22T23:03:18.936Z,95610.72
2024-04-22T23:05:46.615Z,95614.91
2024-04-22T23:08:16.616Z,95607.84
2024-04-22T23:10:44.196Z,95605.00
2024-04-22T23:13:14.227Z,95613.06
2024-04-22T23:15:41.493Z,95603.94
2024-04-22T23:18:12.282Z,95607.59
2024-04-22T23:20:42.376Z,95602.38
2024-04-22T23:23:12.343Z,95598.72
2024-04-22T23:25:39.747Z,95594.03
2024-04-22T23:28:10.087Z,95603.44
2024-04-22T23:30:37.442Z,95590.91
2024-04-22T23:33:08.953Z,95598.72
2024-04-22T23:35:36.314Z,95590.38
2024-04-22T23:38:09.338Z,95593.22
2024-04-22T23:40:36.687Z,95584.09
2024-04-22T23:43:06.641Z,95584.09
2024-04-22T23:45:34.027Z,95586.16
2024-04-22T23:48:04.103Z,95581.25
2024-04-22T23:50:31.434Z,95582.03
2024-04-22T23:53:01.539Z,95575.78
2024-04-22T23:55:31.548Z,95572.91
2024-04-22T23:58:01.621Z,95568.22
